createdAt,value
2022-10-13T00:00:48.383Z,13.23
2022-10-13T00:03:17.136Z,11.97
2022-10-13T00:05:47.024Z,12.37
2022-10-13T00:08:18.968Z,12.83
2022-10-13T00:10:49.467Z,12.77
2022-10-13T00:13:17.947Z,12.53
2022-10-13T00:15:48.974Z,12.67
2022-10-13T00:18:17.325Z,11.50
2022-10-13T00:20:46.947Z,13.00
2022-10-13T00:23:15.192Z,11.40
2022-10-13T00:25:44.317Z,12.27
2022-10-13T00:28:13.171Z,12.03
2022-10-13T00:30:41.907Z,12.30
2022-10-13T00:33:12.095Z,13.53
2022-10-13T00:35:43.701Z,11.67
2022-10-13T00:38:12.364Z,12.40
2022-10-13T00:40:47.698Z,13.37
2022-10-13T00:43:20.198Z,13.10
2022-10-13T00:45:50.659Z,12.80
2022-10-13T00:48:23.056Z,13.47
2022-10-13T00:50:51.279Z,12.30
2022-10-13T00:53:22.408Z,13.70
2022-10-13T00:55:51.892Z,13.60
2022-10-13T00:58:21.005Z,13.47
2022-10-13T01:00:50.870Z,11.80
2022-10-13T01:03:21.299Z,12.27
2022-10-13T01:05:50.219Z,11.20
2022-10-13T01:08:19.514Z,11.13
2022-10-13T01:10:57.032Z,9.90
2022-10-13T01:13:30.950Z,11.57
2022-10-13T01:16:02.855Z,9.87
2022-10-13T01:18:38.893Z,10.00
2022-10-13T01:21:15.354Z,10.27
2022-10-13T01:24:16.691Z,10.03
2022-10-13T01:27:03.406Z,8.30
2022-10-13T01:30:04.937Z,9.13
2022-10-13T01:32:53.466Z,9.20
2022-10-13T01:35:26.288Z,10.70
2022-10-13T01:37:57.841Z,9.87
2022-10-13T01:40:28.625Z,9.67
2022-10-13T01:42:59.840Z,9.90
2022-10-13T01:45:31.803Z,9.43
2022-10-13T01:48:03.659Z,9.83
2022-10-13T01:50:32.651Z,10.93
2022-10-13T01:53:02.605Z,9.77
2022-10-13T01:55:31.704Z,11.40
2022-10-13T01:57:59.748Z,11.57
2022-10-13T02:00:28.004Z,11.30
2022-10-13T02:03:07.055Z,11.03
2022-10-13T02:05:41.140Z,9.80
2022-10-13T02:08:12.765Z,9.30
2022-10-13T02:10:48.025Z,11.77
2022-10-13T02:13:19.124Z,9.70
2022-10-13T02:15:50.336Z,10.50
2022-10-13T02:18:23.452Z,10.27
2022-10-13T02:20:52.885Z,11.03
2022-10-13T02:23:21.745Z,10.60
2022-10-13T02:25:51.264Z,11.00
2022-10-13T02:28:19.903Z,12.50
2022-10-13T02:30:48.303Z,11.27
2022-10-13T02:33:17.056Z,12.30
2022-10-13T02:35:46.659Z,11.57
2022-10-13T02:38:14.692Z,11.63
2022-10-13T02:40:42.743Z,10.43
2022-10-13T02:43:11.180Z,11.93
2022-10-13T02:45:39.362Z,10.43
2022-10-13T02:48:07.663Z,11.20
2022-10-13T02:50:36.100Z,12.40
2022-10-13T02:53:05.535Z,14.77
2022-10-13T02:55:33.594Z,12.53
2022-10-13T02:58:01.983Z,12.37
2022-10-13T03:00:30.539Z,12.40
2022-10-13T03:02:58.639Z,11.20
2022-10-13T03:05:28.081Z,11.13
2022-10-13T03:07:56.099Z,10.80
2022-10-13T03:10:26.254Z,9.90
2022-10-13T03:12:55.706Z,10.60
2022-10-13T03:15:24.000Z,10.00
2022-10-13T03:17:52.348Z,10.30
2022-10-13T03:20:20.427Z,10.27
2022-10-13T03:22:49.938Z,10.17
2022-10-13T03:25:18.616Z,8.27
2022-10-13T03:27:48.250Z,8.00
2022-10-13T03:30:16.330Z,7.07
2022-10-13T03:32:44.750Z,7.10
2022-10-13T03:35:12.701Z,6.17
2022-10-13T03:37:41.257Z,6.97
2022-10-13T03:40:11.030Z,6.37
2022-10-13T03:42:39.855Z,6.70
2022-10-13T03:45:10.731Z,6.50
2022-10-13T03:47:38.882Z,6.80
2022-10-13T03:50:08.112Z,6.33
2022-10-13T03:52:36.146Z,6.30
2022-10-13T03:55:04.830Z,7.77
2022-10-13T03:57:32.823Z,8.40
2022-10-13T04:00:01.742Z,7.93
2022-10-13T04:02:31.134Z,7.20
2022-10-13T04:05:00.109Z,8.10
2022-10-13T04:07:28.170Z,9.00
2022-10-13T04:09:56.180Z,8.77
2022-10-13T04:12:24.575Z,7.87
2022-10-13T04:14:52.706Z,8.20
2022-10-13T04:17:20.806Z,9.93
2022-10-13T04:19:50.297Z,8.50
2022-10-13T04:22:18.842Z,8.00
2022-10-13T04:24:47.057Z,7.33
2022-10-13T04:27:16.776Z,7.50
2022-10-13T04:29:45.288Z,7.10
2022-10-13T04:32:13.649Z,7.47
2022-10-13T04:34:41.775Z,8.37
2022-10-13T04:37:11.713Z,7.20
2022-10-13T04:39:39.862Z,8.00
2022-10-13T04:42:07.999Z,7.97
2022-10-13T04:44:36.728Z,9.47
2022-10-13T04:47:04.956Z,10.17
2022-10-13T04:49:32.989Z,10.30
2022-10-13T04:52:01.366Z,10.07
2022-10-13T04:54:30.894Z,10.30
2022-10-13T04:56:59.310Z,11.67
2022-10-13T04:59:27.652Z,10.83
2022-10-13T05:01:55.657Z,11.10
2022-10-13T05:04:23.676Z,11.93
2022-10-13T05:07:16.389Z,11.10
2022-10-13T05:09:41.425Z,12.60
2022-10-13T05:12:09.503Z,12.90
2022-10-13T05:14:37.527Z,13.90
2022-10-13T05:17:05.691Z,12.37
2022-10-13T05:19:33.732Z,11.83
2022-10-13T05:22:01.769Z,9.60
2022-10-13T05:24:36.637Z,10.43
2022-10-13T05:27:07.224Z,9.50
2022-10-13T05:29:35.184Z,9.10
2022-10-13T05:32:03.410Z,9.53
2022-10-13T05:34:32.664Z,8.17
2022-10-13T05:37:00.802Z,7.83
2022-10-13T05:39:29.091Z,7.97
2022-10-13T05:41:57.097Z,6.43
2022-10-13T05:44:27.154Z,6.90
2022-10-13T05:46:55.321Z,7.23
2022-10-13T05:49:23.564Z,8.90
2022-10-13T05:51:54.065Z,8.67
2022-10-13T05:54:25.483Z,8.57
2022-10-13T05:56:57.676Z,8.73
2022-10-13T05:59:28.585Z,7.60
2022-10-13T06:01:56.689Z,6.97
2022-10-13T06:04:27.499Z,6.60
2022-10-13T06:06:55.593Z,5.00
2022-10-13T06:09:23.653Z,5.77
2022-10-13T06:11:51.788Z,5.23
2022-10-13T06:14:19.854Z,4.43
2022-10-13T06:16:49.213Z,4.30
2022-10-13T06:19:17.240Z,5.00
2022-10-13T06:21:45.468Z,3.80
2022-10-13T06:24:13.749Z,5.20
2022-10-13T06:26:42.878Z,5.10
2022-10-13T06:29:10.956Z,4.20
2022-10-13T06:31:39.058Z,3.77
2022-10-13T06:34:08.595Z,3.80
2022-10-13T06:36:36.641Z,4.10
2022-10-13T06:39:04.827Z,4.90
2022-10-13T06:41:32.865Z,4.67
2022-10-13T06:44:00.888Z,4.97
2022-10-13T06:46:28.863Z,5.70
2022-10-13T06:48:56.877Z,4.70
2022-10-13T06:51:26.513Z,5.17
2022-10-13T06:53:54.479Z,5.40
2022-10-13T06:56:23.332Z,5.00
2022-10-13T06:58:51.341Z,5.00
2022-10-13T07:01:19.267Z,4.87
2022-10-13T07:03:49.818Z,4.90
2022-10-13T07:06:18.497Z,5.13
2022-10-13T07:08:48.095Z,4.80
2022-10-13T07:11:18.573Z,5.53
2022-10-13T07:13:46.956Z,5.50
2022-10-13T07:16:16.098Z,5.73
2022-10-13T07:18:44.099Z,5.30
2022-10-13T07:21:12.108Z,5.77
2022-10-13T07:23:40.103Z,5.70
2022-10-13T07:26:10.698Z,5.70
2022-10-13T07:28:39.573Z,6.40
2022-10-13T07:31:13.566Z,6.10
2022-10-13T07:33:42.648Z,8.50
2022-10-13T07:36:15.382Z,6.87
2022-10-13T07:38:43.389Z,9.50
2022-10-13T07:41:13.366Z,6.90
2022-10-13T07:43:41.839Z,7.57
2022-10-13T07:46:10.217Z,9.50
2022-10-13T07:48:38.211Z,9.87
2022-10-13T07:51:07.427Z,8.20
2022-10-13T07:53:36.198Z,10.27
2022-10-13T07:56:06.258Z,8.63
2022-10-13T07:58:37.689Z,9.67
2022-10-13T08:01:06.151Z,9.40
2022-10-13T08:03:34.314Z,10.07
2022-10-13T08:06:03.599Z,8.70
2022-10-13T08:08:31.794Z,9.33
2022-10-13T08:11:02.780Z,8.30
2022-10-13T08:13:30.795Z,8.10
2022-10-13T08:16:01.504Z,7.27
2022-10-13T08:18:30.108Z,7.60
2022-10-13T08:21:33.024Z,7.03
2022-10-13T08:23:50.066Z,6.77
2022-10-13T08:26:20.404Z,7.03
2022-10-13T08:29:09.436Z,6.60
2022-10-13T08:31:38.680Z,6.30
2022-10-13T08:34:06.832Z,6.47
2022-10-13T08:36:34.866Z,5.77
2022-10-13T08:39:02.881Z,6.40
2022-10-13T08:41:33.780Z,6.20
2022-10-13T08:44:49.546Z,6.23
2022-10-13T08:47:01.017Z,6.20
2022-10-13T08:49:29.381Z,6.23
2022-10-13T08:51:58.865Z,6.57
2022-10-13T08:54:27.438Z,5.80
2022-10-13T08:56:57.447Z,5.70
2022-10-13T08:59:25.468Z,7.00
2022-10-13T09:01:55.692Z,7.60
2022-10-13T09:04:29.520Z,8.60
2022-10-13T09:06:59.891Z,7.63
2022-10-13T09:09:27.848Z,6.50
2022-10-13T09:11:55.835Z,6.57
2022-10-13T09:14:27.398Z,7.00
2022-10-13T09:16:58.997Z,6.27
2022-10-13T09:19:28.917Z,7.20
2022-10-13T09:21:58.289Z,5.50
2022-10-13T09:24:28.900Z,6.93
2022-10-13T09:27:15.579Z,7.03
2022-10-13T09:29:45.394Z,6.00
2022-10-13T09:32:21.883Z,5.70
2022-10-13T09:34:51.836Z,10.10
2022-10-13T09:37:22.052Z,7.20
2022-10-13T09:40:02.479Z,7.30
2022-10-13T09:42:31.849Z,5.90
2022-10-13T09:45:01.381Z,6.90
2022-10-13T09:47:33.184Z,7.40
2022-10-13T09:50:15.450Z,7.23
2022-10-13T09:52:43.638Z,7.10
2022-10-13T09:55:32.400Z,7.33
2022-10-13T09:58:05.164Z,6.50
2022-10-13T10:00:33.985Z,6.43
2022-10-13T10:03:06.439Z,7.20
2022-10-13T10:05:41.224Z,7.40
2022-10-13T10:08:15.612Z,7.00
2022-10-13T10:10:44.133Z,6.40
2022-10-13T10:13:13.531Z,5.97
2022-10-13T10:15:49.627Z,5.73
2022-10-13T10:18:21.675Z,6.37
2022-10-13T10:20:58.231Z,6.50
2022-10-13T10:23:33.281Z,6.80
2022-10-13T10:26:03.696Z,5.03
2022-10-13T10:28:58.724Z,5.10
2022-10-13T10:31:41.641Z,8.37
2022-10-13T10:34:32.440Z,61.60
2022-10-13T10:37:26.376Z,30.80
2022-10-13T10:40:02.574Z,14.30
2022-10-13T10:42:52.298Z,9.47
2022-10-13T10:45:23.211Z,6.93
2022-10-13T10:47:53.827Z,5.10
2022-10-13T10:50:23.948Z,6.03
2022-10-13T10:52:57.553Z,5.27
2022-10-13T10:55:28.716Z,5.87
2022-10-13T10:58:05.059Z,9.70
2022-10-13T11:00:39.983Z,6.10
2022-10-13T11:03:11.888Z,7.57
2022-10-13T11:06:05.936Z,11.60
2022-10-13T11:08:42.425Z,10.37
2022-10-13T11:11:37.190Z,5.37
2022-10-13T11:14:33.076Z,5.70
2022-10-13T11:17:18.653Z,9.93
2022-10-13T11:19:48.898Z,6.23
2022-10-13T11:22:20.896Z,10.93
2022-10-13T11:24:54.858Z,4.97
2022-10-13T11:27:29.180Z,6.80
2022-10-13T11:29:59.180Z,5.80
2022-10-13T11:32:55.575Z,4.80
2022-10-13T11:35:29.751Z,8.27
2022-10-13T11:38:25.215Z,7.27
2022-10-13T11:41:08.948Z,6.20
2022-10-13T11:43:44.954Z,5.47
2022-10-13T11:46:28.862Z,5.50
2022-10-13T11:49:32.010Z,5.33
2022-10-13T11:52:13.348Z,4.93
2022-10-13T11:54:49.783Z,4.83
2022-10-13T11:57:22.115Z,5.13
2022-10-13T11:59:55.323Z,5.13
2022-10-13T12:02:25.412Z,4.67
2022-10-13T12:05:02.488Z,4.83
2022-10-13T12:07:34.509Z,5.23
2022-10-13T12:10:06.506Z,4.80
2022-10-13T12:12:35.164Z,5.20
2022-10-13T12:15:06.833Z,4.83
2022-10-13T12:17:38.863Z,4.90
2022-10-13T12:20:22.661Z,4.70
2022-10-13T12:22:51.066Z,4.47
2022-10-13T12:25:22.322Z,4.47
2022-10-13T12:27:53.771Z,5.37
2022-10-13T12:30:23.615Z,4.50
2022-10-13T12:32:53.060Z,5.27
2022-10-13T12:35:22.507Z,4.90
2022-10-13T12:37:50.696Z,4.90
2022-10-13T12:40:21.026Z,5.10
2022-10-13T12:42:49.755Z,5.53
2022-10-13T12:45:19.444Z,5.13
2022-10-13T12:47:50.139Z,7.27
2022-10-13T12:50:32.869Z,6.20
2022-10-13T12:53:10.363Z,5.30
2022-10-13T12:55:49.791Z,4.17
2022-10-13T12:58:20.803Z,5.20
2022-10-13T13:01:00.593Z,5.87
2022-10-13T13:03:30.228Z,5.57
2022-10-13T13:06:23.910Z,4.40
2022-10-13T13:09:23.470Z,5.43
2022-10-13T13:12:23.405Z,5.20
2022-10-13T13:14:55.045Z,5.10
2022-10-13T13:17:52.997Z,5.27
2022-10-13T13:20:25.647Z,5.50
2022-10-13T13:22:53.665Z,5.10
2022-10-13T13:25:21.832Z,6.30
2022-10-13T13:27:52.048Z,5.50
2022-10-13T13:30:21.420Z,5.87
2022-10-13T13:32:49.941Z,5.20
2022-10-13T13:35:18.517Z,5.47
2022-10-13T13:37:49.728Z,6.53
2022-10-13T13:40:19.958Z,5.00
2022-10-13T13:42:48.199Z,5.60
2022-10-13T13:45:20.524Z,5.63
2022-10-13T13:47:48.997Z,5.57
2022-10-13T13:50:18.905Z,6.00
2022-10-13T13:52:47.146Z,5.47
2022-10-13T13:55:15.726Z,4.93
2022-10-13T13:57:44.111Z,5.07
2022-10-13T14:00:13.622Z,5.50
2022-10-13T14:02:43.906Z,5.03
2022-10-13T14:05:12.537Z,5.60
2022-10-13T14:07:40.918Z,6.37
2022-10-13T14:10:10.316Z,5.30
2022-10-13T14:12:38.470Z,5.50
2022-10-13T14:15:07.561Z,5.80
2022-10-13T14:17:35.641Z,6.00
2022-10-13T14:20:06.199Z,6.07
2022-10-13T14:22:34.425Z,5.60
2022-10-13T14:25:02.646Z,6.73
2022-10-13T14:27:31.347Z,5.33
2022-10-13T14:29:59.414Z,4.80
2022-10-13T14:32:27.769Z,6.43
2022-10-13T14:34:55.797Z,5.37
2022-10-13T14:37:30.377Z,6.27
2022-10-13T14:40:00.938Z,5.30
2022-10-13T14:42:29.068Z,5.03
2022-10-13T14:44:57.239Z,6.27
2022-10-13T14:47:25.486Z,4.50
2022-10-13T14:49:53.872Z,4.93
2022-10-13T14:52:22.207Z,4.77
2022-10-13T14:54:51.861Z,5.60
2022-10-13T14:57:20.441Z,6.17
2022-10-13T14:59:48.538Z,5.70
2022-10-13T15:02:17.040Z,4.60
2022-10-13T15:04:45.207Z,5.13
2022-10-13T15:07:13.650Z,5.30
2022-10-13T15:09:52.810Z,4.90
2022-10-13T15:12:23.328Z,5.27
2022-10-13T15:14:51.559Z,5.00
2022-10-13T15:17:19.645Z,5.00
2022-10-13T15:19:47.737Z,5.83
2022-10-13T15:22:15.921Z,5.80
2022-10-13T15:24:45.732Z,5.17
2022-10-13T15:27:13.849Z,5.70
2022-10-13T15:29:43.324Z,5.60
2022-10-13T15:32:13.085Z,5.30
2022-10-13T15:34:41.502Z,5.00
2022-10-13T15:37:10.695Z,5.60
2022-10-13T15:39:39.087Z,4.83
2022-10-13T15:42:07.403Z,6.10
2022-10-13T15:47:25.866Z,5.37
2022-10-13T15:49:54.208Z,4.93
2022-10-13T15:52:22.727Z,6.23
2022-10-13T15:54:52.176Z,4.70
2022-10-13T15:57:20.463Z,5.20
2022-10-13T15:59:48.487Z,6.37
2022-10-13T16:02:16.558Z,5.23
2022-10-13T16:04:46.704Z,5.50
2022-10-13T16:07:14.955Z,5.87
2022-10-13T16:09:43.029Z,6.17
2022-10-13T16:12:11.094Z,6.30
2022-10-13T16:14:39.245Z,7.43
2022-10-13T16:17:07.492Z,7.43
2022-10-13T16:19:35.702Z,7.70
2022-10-13T16:22:05.737Z,7.93
2022-10-13T16:24:34.249Z,8.27
2022-10-13T16:27:02.778Z,9.70
2022-10-13T16:29:30.839Z,8.33
2022-10-13T16:32:00.347Z,8.40
2022-10-13T16:34:28.892Z,8.93
2022-10-13T16:36:57.071Z,8.80
2022-10-13T16:39:28.362Z,8.17
2022-10-13T16:41:56.712Z,7.90
2022-10-13T16:44:24.888Z,8.20
2022-10-13T16:46:55.314Z,6.63
2022-10-13T16:49:23.805Z,9.27
2022-10-13T16:51:52.194Z,8.97
2022-10-13T16:54:20.371Z,8.63
2022-10-13T16:56:51.429Z,9.70
2022-10-13T16:59:20.415Z,9.70
2022-10-13T17:01:48.914Z,8.80
2022-10-13T17:04:21.241Z,7.67
2022-10-13T17:06:50.166Z,9.70
2022-10-13T17:09:18.541Z,10.23
2022-10-13T17:11:46.954Z,10.53
2022-10-13T17:14:16.842Z,9.90
2022-10-13T17:16:45.224Z,8.43
2022-10-13T17:19:13.361Z,7.40
2022-10-13T17:21:41.558Z,9.57
2022-10-13T17:24:09.674Z,9.30
2022-10-13T17:26:37.742Z,9.80
2022-10-13T17:29:06.137Z,11.60
2022-10-13T17:31:35.954Z,7.80
2022-10-13T17:34:03.958Z,8.53
2022-10-13T17:36:34.297Z,9.37
2022-10-13T17:39:05.921Z,9.03
2022-10-13T17:41:34.490Z,7.77
2022-10-13T17:44:03.514Z,11.03
2022-10-13T17:46:37.982Z,13.10
2022-10-13T17:49:10.282Z,13.40
2022-10-13T17:51:40.747Z,13.30
2022-10-13T17:54:14.490Z,13.20
2022-10-13T17:56:43.980Z,12.83
2022-10-13T17:59:12.437Z,12.97
2022-10-13T18:01:42.018Z,11.27
2022-10-13T18:04:15.719Z,13.97
2022-10-13T18:06:45.014Z,2.57
2022-10-13T18:09:15.122Z,10.50
2022-10-13T18:11:48.735Z,48.20
2022-10-13T18:14:18.281Z,9.70
2022-10-13T18:16:46.824Z,9.93
2022-10-13T18:19:16.656Z,9.70
2022-10-13T18:21:44.717Z,10.33
2022-10-13T18:24:13.023Z,10.67
2022-10-13T18:26:41.726Z,9.20
2022-10-13T18:29:11.629Z,8.97
2022-10-13T18:31:41.593Z,10.37
2022-10-13T18:34:14.882Z,10.70
2022-10-13T18:36:47.211Z,10.13
2022-10-13T18:39:17.236Z,10.30
2022-10-13T18:41:45.402Z,9.27
2022-10-13T18:44:13.626Z,9.50
2022-10-13T18:46:41.987Z,10.43
2022-10-13T18:49:13.963Z,10.33
2022-10-13T18:51:42.409Z,10.47
2022-10-13T18:54:12.426Z,10.40
2022-10-13T18:56:40.456Z,10.57
2022-10-13T18:59:09.571Z,10.53
2022-10-13T19:01:39.087Z,10.13
2022-10-13T19:04:07.472Z,10.80
2022-10-13T19:06:35.617Z,13.60
2022-10-13T19:09:05.528Z,10.97
2022-10-13T19:11:35.074Z,10.27
2022-10-13T19:14:04.260Z,11.33
2022-10-13T19:16:33.774Z,11.80
2022-10-13T19:19:01.790Z,12.73
2022-10-13T19:21:36.969Z,12.93
2022-10-13T19:24:05.837Z,13.70
2022-10-13T19:26:36.122Z,14.67
2022-10-13T19:29:06.081Z,15.90
2022-10-13T19:31:35.072Z,15.00
2022-10-13T19:34:03.511Z,15.53
2022-10-13T19:36:34.252Z,15.50
2022-10-13T19:39:03.772Z,14.37
2022-10-13T19:41:32.937Z,13.50
2022-10-13T19:44:03.207Z,21.70
2022-10-13T19:46:31.800Z,21.50
2022-10-13T19:48:59.908Z,24.97
2022-10-13T19:51:27.911Z,26.77
2022-10-13T19:53:56.148Z,30.77
2022-10-13T19:56:27.005Z,24.90
2022-10-13T19:58:55.326Z,28.20
2022-10-13T20:01:25.115Z,22.90
2022-10-13T20:03:53.589Z,19.23
2022-10-13T20:06:22.159Z,15.43
2022-10-13T20:08:50.699Z,14.87
2022-10-13T20:11:23.705Z,17.20
2022-10-13T20:13:52.463Z,13.27
2022-10-13T20:16:22.650Z,12.57
2022-10-13T20:18:55.035Z,12.60
2022-10-13T20:21:23.736Z,11.10
2022-10-13T20:23:52.287Z,11.50
2022-10-13T20:26:20.919Z,11.63
2022-10-13T20:28:50.063Z,9.57
2022-10-13T20:31:19.832Z,8.73
2022-10-13T20:33:49.491Z,10.73
2022-10-13T20:36:19.350Z,10.07
2022-10-13T20:38:48.704Z,9.63
2022-10-13T20:41:18.570Z,9.27
2022-10-13T20:43:47.153Z,8.67
2022-10-13T20:46:17.202Z,8.90
2022-10-13T20:49:09.278Z,7.97
2022-10-13T20:51:35.013Z,9.30
2022-10-13T20:54:03.019Z,10.10
2022-10-13T20:56:31.138Z,8.63
2022-10-13T20:59:03.726Z,8.40
2022-10-13T21:01:32.053Z,9.00
2022-10-13T21:04:00.132Z,8.37
2022-10-13T21:06:28.790Z,10.60
2022-10-13T21:08:58.913Z,9.40
2022-10-13T21:11:27.285Z,7.77
2022-10-13T21:13:55.468Z,9.43
2022-10-13T21:16:27.160Z,7.97
2022-10-13T21:18:57.994Z,8.90
2022-10-13T21:21:27.802Z,8.73
2022-10-13T21:23:58.991Z,9.80
2022-10-13T21:26:28.377Z,9.50
2022-10-13T21:28:56.988Z,8.90
2022-10-13T21:31:26.084Z,6.37
2022-10-13T21:33:54.424Z,6.30
2022-10-13T21:36:24.045Z,8.20
2022-10-13T21:38:53.795Z,7.60
2022-10-13T21:41:23.645Z,9.80
2022-10-13T21:43:52.240Z,8.83
2022-10-13T21:46:23.265Z,8.33
2022-10-13T21:48:53.955Z,7.50
2022-10-13T21:51:24.207Z,6.23
2022-10-13T21:53:53.815Z,7.60
2022-10-13T21:56:23.729Z,9.07
2022-10-13T21:58:52.062Z,9.70
2022-10-13T22:01:20.761Z,7.10
2022-10-13T22:03:49.927Z,6.67
2022-10-13T22:06:19.758Z,7.80
2022-10-13T22:08:50.107Z,6.03
2022-10-13T22:11:19.859Z,5.87
2022-10-13T22:13:49.248Z,7.10
2022-10-13T22:16:19.895Z,6.50
2022-10-13T22:18:48.274Z,6.80
2022-10-13T22:21:18.563Z,6.13
2022-10-13T22:23:47.525Z,6.50
2022-10-13T22:26:16.986Z,6.00
2022-10-13T22:28:45.329Z,6.27
2022-10-13T22:31:15.355Z,5.63
2022-10-13T22:33:44.398Z,6.53
2022-10-13T22:36:15.668Z,5.83
2022-10-13T22:38:43.948Z,5.30
2022-10-13T22:41:13.109Z,6.83
2022-10-13T22:43:41.979Z,8.03
2022-10-13T22:46:10.559Z,6.30
2022-10-13T22:48:41.101Z,7.80
2022-10-13T22:51:10.537Z,6.87
2022-10-13T22:53:39.825Z,6.50
2022-10-13T22:56:09.715Z,8.50
2022-10-13T22:58:37.835Z,8.83
2022-10-13T23:01:07.154Z,7.87
2022-10-13T23:03:36.215Z,7.47
2022-10-13T23:06:14.736Z,7.47
2022-10-13T23:08:42.927Z,8.80
2022-10-13T23:11:12.330Z,9.07
2022-10-13T23:13:40.387Z,9.50
2022-10-13T23:16:10.902Z,10.77
2022-10-13T23:18:39.452Z,11.57
2022-10-13T23:21:08.471Z,11.70
2022-10-13T23:23:38.012Z,11.57
2022-10-13T23:26:06.920Z,10.70
2022-10-13T23:28:36.179Z,10.67
2022-10-13T23:31:06.043Z,11.30
2022-10-13T23:33:34.363Z,12.60
2022-10-13T23:36:03.367Z,12.33
2022-10-13T23:38:32.172Z,12.33
2022-10-13T23:41:06.510Z,11.50
2022-10-13T23:43:34.615Z,9.03
2022-10-13T23:46:03.773Z,9.50
2022-10-13T23:48:32.109Z,9.27
2022-10-13T23:51:00.344Z,9.10
2022-10-13T23:53:28.461Z,8.20
2022-10-13T23:55:56.475Z,8.00
2022-10-13T23:58:26.109Z,9.20
